Time;durP1;ratioP1;P1;durP2;ratioP2;P2;SDS_P1;SDS_P2;PMS_P1;PMS_P2;Temp;Humidity;BMP_temperature;BMP_pressure;BME280_temperature;BME280_humidity;BME280_pressure;Samples;Min_cycle;Max_cycle;Signal;HPM_P1;HPM_P2
2022/07/17 00:01:12;;;;;;;2.50;1.33;;;25.50;61.10;;;;;;5075390;28;20441;-93
2022/07/17 00:03:39;;;;;;;1.50;1.33;;;25.50;61.10;;;;;;5075734;28;20460;-82
2022/07/17 00:06:06;;;;;;;1.47;1.10;;;25.50;62.00;;;;;;5075511;28;20448;-83
2022/07/17 00:08:33;;;;;;;1.73;1.00;;;25.50;61.10;;;;;;5075633;28;20532;-82
2022/07/17 00:11:02;;;;;;;1.30;1.20;;;25.50;62.00;;;;;;5075691;28;20452;-82
2022/07/17 00:13:29;;;;;;;1.40;1.13;;;25.50;61.20;;;;;;5075300;28;20859;-83
2022/07/17 00:15:56;;;;;;;1.00;0.90;;;25.50;61.20;;;;;;5075032;28;20472;-82
2022/07/17 00:18:23;;;;;;;1.50;1.00;;;25.50;61.20;;;;;;5075505;28;20787;-93
2022/07/17 00:20:50;;;;;;;1.70;1.07;;;25.50;61.30;;;;;;5075500;28;20806;-93
2022/07/17 00:23:17;;;;;;;1.73;1.13;;;25.50;61.20;;;;;;5075244;28;20476;-92
2022/07/17 00:25:44;;;;;;;1.60;1.10;;;25.50;61.20;;;;;;5075112;28;20437;-82
2022/07/17 00:28:12;;;;;;;1.23;1.13;;;25.50;61.30;;;;;;5075208;28;20439;-82
2022/07/17 00:30:39;;;;;;;1.40;1.17;;;25.50;61.30;;;;;;5075105;28;20528;-82
2022/07/17 00:33:06;;;;;;;1.20;1.10;;;25.50;61.30;;;;;;5075213;28;21061;-83
2022/07/17 00:35:33;;;;;;;3.10;1.10;;;25.50;61.40;;;;;;5074904;28;20533;-82
2022/07/17 00:38:00;;;;;;;1.60;1.30;;;25.50;61.30;;;;;;5074880;28;20425;-93
2022/07/17 00:40:27;;;;;;;2.07;1.23;;;25.50;61.40;;;;;;5075123;28;20429;-82
2022/07/17 00:42:54;;;;;;;1.47;1.23;;;25.50;61.50;;;;;;5074810;28;20795;-82
2022/07/17 00:45:24;;;;;;;1.30;0.97;;;25.50;61.60;;;;;;5074643;28;20463;-88
2022/07/17 00:47:55;;;;;;;1.20;1.10;;;25.50;61.50;;;;;;5074793;28;20445;-90
2022/07/17 00:50:23;;;;;;;1.33;1.20;;;25.50;61.60;;;;;;5074892;28;20441;-93
2022/07/17 00:52:50;;;;;;;1.10;0.97;;;25.50;61.60;;;;;;5074594;28;20491;-87
2022/07/17 00:55:18;;;;;;;1.73;1.30;;;25.50;61.60;;;;;;5074668;28;20433;-82
2022/07/17 00:57:47;;;;;;;1.20;1.10;;;25.50;61.60;;;;;;5074409;28;20433;-82
2022/07/17 01:00:15;;;;;;;1.10;1.00;;;25.50;61.60;;;;;;5074568;28;20864;-82
2022/07/17 01:02:46;;;;;;;1.20;0.90;;;25.50;61.60;;;;;;5074633;28;20437;-82
2022/07/17 01:05:23;;;;;;;1.10;0.93;;;25.50;61.70;;;;;;5074496;28;20448;-82
2022/07/17 01:07:51;;;;;;;1.20;1.10;;;25.50;61.70;;;;;;5074132;28;20527;-91
2022/07/17 01:10:18;;;;;;;2.13;1.10;;;25.50;61.70;;;;;;5074507;28;20440;-82
2022/07/17 01:12:47;;;;;;;2.17;1.10;;;25.40;61.60;;;;;;5074512;28;20479;-83
2022/07/17 01:15:14;;;;;;;1.03;0.90;;;25.50;61.80;;;;;;5073904;28;20472;-83
2022/07/17 01:17:43;;;;;;;1.20;1.10;;;25.50;61.80;;;;;;5074031;28;20469;-92
2022/07/17 01:20:12;;;;;;;1.50;1.03;;;25.50;61.80;;;;;;5074192;28;20948;-82
2022/07/17 01:22:43;;;;;;;1.83;1.10;;;25.50;61.90;;;;;;5074236;28;20445;-83
2022/07/17 01:25:10;;;;;;;1.10;1.00;;;25.50;61.90;;;;;;5074447;28;20441;-83
2022/07/17 01:27:37;;;;;;;1.10;0.90;;;25.40;61.80;;;;;;5074032;28;20433;-83
2022/07/17 01:30:06;;;;;;;1.37;1.10;;;25.40;61.80;;;;;;5075029;28;20441;-91
2022/07/17 01:32:34;;;;;;;1.13;1.00;;;25.40;61.80;;;;;;5073823;28;20836;-82
2022/07/17 01:35:01;;;;;;;1.10;1.00;;;25.50;61.80;;;;;;5073717;28;20443;-82
2022/07/17 01:37:28;;;;;;;1.20;1.07;;;25.40;61.90;;;;;;5073723;28;20448;-82
2022/07/17 01:39:56;;;;;;;1.00;0.90;;;25.40;61.80;;;;;;5073691;28;20448;-91
2022/07/17 01:42:25;;;;;;;1.30;1.00;;;25.40;61.80;;;;;;5073730;28;20448;-83
2022/07/17 01:44:53;;;;;;;1.73;0.97;;;25.40;61.80;;;;;;5073559;28;20898;-81
2022/07/17 01:47:20;;;;;;;1.10;1.00;;;25.40;61.90;;;;;;5073485;28;20536;-93
2022/07/17 01:49:48;;;;;;;1.10;0.90;;;25.40;61.70;;;;;;5073748;28;20444;-84
2022/07/17 01:52:15;;;;;;;1.30;1.20;;;25.40;61.80;;;;;;5073578;28;20488;-82
2022/07/17 01:54:42;;;;;;;1.20;1.00;;;25.40;61.80;;;;;;5073237;28;20444;-82
2022/07/17 01:57:11;;;;;;;1.40;1.03;;;25.40;61.70;;;;;;5073757;28;20443;-83
2022/07/17 01:59:39;;;;;;;1.10;1.00;;;25.40;61.90;;;;;;5073609;28;20439;-91
2022/07/17 02:02:07;;;;;;;1.67;1.00;;;25.40;61.90;;;;;;5073478;28;20449;-82
2022/07/17 02:04:35;;;;;;;1.43;0.90;;;25.40;61.90;;;;;;5073425;28;20437;-82
2022/07/17 02:07:02;;;;;;;1.20;1.00;;;25.40;62.70;;;;;;5073448;28;20437;-82
2022/07/17 02:09:30;;;;;;;1.10;1.00;;;25.40;61.90;;;;;;5073398;28;20428;-82
2022/07/17 02:11:57;;;;;;;1.60;1.10;;;25.40;61.90;;;;;;5073177;28;20480;-86
2022/07/17 02:14:25;;;;;;;2.17;1.00;;;25.40;62.00;;;;;;5073697;28;20892;-82
2022/07/17 02:16:52;;;;;;;1.10;1.00;;;25.40;62.20;;;;;;5073417;28;20495;-82
2022/07/17 02:19:19;;;;;;;1.63;1.17;;;25.40;62.20;;;;;;5073422;28;20900;-83
2022/07/17 02:21:46;;;;;;;1.50;1.17;;;25.40;62.10;;;;;;5073493;28;20441;-82
2022/07/17 02:24:14;;;;;;;1.10;1.00;;;25.40;62.20;;;;;;5073586;28;20494;-82
2022/07/17 02:26:41;;;;;;;1.27;0.97;;;25.40;62.10;;;;;;5073316;28;20437;-87
2022/07/17 02:29:08;;;;;;;1.07;0.93;;;25.40;62.40;;;;;;5073640;28;20444;-82
2022/07/17 02:31:36;;;;;;;1.20;0.80;;;25.40;62.40;;;;;;5073267;28;20451;-83
2022/07/17 02:34:03;;;;;;;1.17;1.00;;;25.40;62.50;;;;;;5073061;28;20481;-82
2022/07/17 02:36:30;;;;;;;1.30;1.00;;;25.40;63.30;;;;;;5073121;28;20451;-82
2022/07/17 02:38:57;;;;;;;1.33;0.93;;;25.40;62.30;;;;;;5073135;28;20910;-82
2022/07/17 02:41:24;;;;;;;1.20;1.10;;;25.40;62.40;;;;;;5073100;28;20443;-82
2022/07/17 02:43:51;;;;;;;1.30;1.00;;;25.40;62.50;;;;;;5073364;28;20460;-83
2022/07/17 02:46:18;;;;;;;1.13;0.83;;;25.40;62.50;;;;;;5073041;28;20437;-93
2022/07/17 02:48:46;;;;;;;1.20;0.93;;;25.40;62.60;;;;;;5073042;28;20436;-93
2022/07/17 02:51:12;;;;;;;1.20;0.90;;;25.40;62.60;;;;;;5072813;28;20447;-82
2022/07/17 02:53:39;;;;;;;1.13;1.03;;;25.40;62.60;;;;;;5072720;28;20495;-82
2022/07/17 02:56:07;;;;;;;1.00;0.90;;;25.40;62.60;;;;;;5072746;28;20542;-82
2022/07/17 02:58:34;;;;;;;1.10;1.00;;;25.40;62.40;;;;;;5072991;28;20544;-89
2022/07/17 03:01:01;;;;;;;1.30;1.00;;;25.40;62.70;;;;;;5073085;28;20449;-82
2022/07/17 03:03:27;;;;;;;1.50;1.10;;;25.40;62.60;;;;;;5072693;28;20444;-82
2022/07/17 03:05:55;;;;;;;1.10;0.83;;;25.40;62.90;;;;;;5074287;28;20531;-82
2022/07/17 03:08:22;;;;;;;2.00;1.27;;;25.40;62.80;;;;;;5076687;28;20865;-86
2022/07/17 03:10:49;;;;;;;1.10;0.90;;;25.40;62.80;;;;;;5076714;28;20536;-82
2022/07/17 03:13:16;;;;;;;1.10;1.00;;;25.40;62.70;;;;;;5076637;28;20490;-92
2022/07/17 03:15:43;;;;;;;1.20;0.93;;;25.40;62.80;;;;;;5076494;28;20439;-93
2022/07/17 03:18:10;;;;;;;1.30;1.10;;;25.40;62.80;;;;;;5056684;28;20437;-86
2022/07/17 03:20:36;;;;;;;1.17;0.97;;;25.40;62.90;;;;;;5056348;28;20440;-82
2022/07/17 03:23:04;;;;;;;1.23;1.00;;;25.40;62.80;;;;;;5056487;28;20434;-82
2022/07/17 03:25:31;;;;;;;1.20;1.00;;;25.40;62.80;;;;;;5056542;28;20463;-82
2022/07/17 03:27:58;;;;;;;1.10;1.00;;;25.40;62.90;;;;;;5055988;28;20441;-83
2022/07/17 03:30:25;;;;;;;1.10;0.90;;;25.40;62.80;;;;;;5056528;28;20438;-82
2022/07/17 03:32:52;;;;;;;1.00;0.87;;;25.40;62.80;;;;;;5056395;28;20481;-83
2022/07/17 03:35:19;;;;;;;1.10;1.00;;;25.40;63.00;;;;;;5056374;28;20532;-83
2022/07/17 03:37:46;;;;;;;1.10;0.90;;;25.40;62.90;;;;;;5056326;28;20442;-93
2022/07/17 03:40:14;;;;;;;1.10;1.00;;;25.40;62.90;;;;;;5056109;28;20438;-92
2022/07/17 03:42:41;;;;;;;1.10;0.97;;;25.40;62.90;;;;;;5056166;28;20545;-93
2022/07/17 03:45:08;;;;;;;1.90;0.97;;;25.40;62.90;;;;;;5055812;28;20470;-82
2022/07/17 03:47:35;;;;;;;1.80;0.90;;;25.40;63.00;;;;;;5055892;28;20442;-82
2022/07/17 03:50:02;;;;;;;1.00;0.80;;;25.40;63.00;;;;;;5056096;28;20491;-82
2022/07/17 03:52:29;;;;;;;1.10;0.90;;;25.40;63.00;;;;;;5056043;28;20507;-82
2022/07/17 03:54:56;;;;;;;1.10;1.00;;;25.40;63.00;;;;;;5055985;28;20532;-82
2022/07/17 03:57:24;;;;;;;1.10;0.93;;;25.40;63.00;;;;;;5055812;28;20488;-82
2022/07/17 03:59:51;;;;;;;1.07;0.90;;;25.40;63.10;;;;;;5055582;28;20448;-82
2022/07/17 04:02:17;;;;;;;1.00;0.73;;;25.40;63.00;;;;;;5055787;28;20442;-93
2022/07/17 04:04:44;;;;;;;1.20;1.10;;;25.40;63.00;;;;;;5055915;28;20536;-93
2022/07/17 04:07:26;;;;;;;1.50;1.10;;;25.40;63.10;;;;;;5055476;28;20446;-93
2022/07/17 04:09:54;;;;;;;1.00;0.90;;;25.40;63.00;;;;;;5055716;28;20935;-92
2022/07/17 04:12:20;;;;;;;1.10;0.90;;;25.40;63.00;;;;;;5055455;28;20437;-93
2022/07/17 04:14:49;;;;;;;1.10;0.90;;;25.40;63.00;;;;;;5055555;28;20964;-83
2022/07/17 04:17:16;;;;;;;1.30;1.20;;;25.40;63.00;;;;;;5067489;28;20483;-83
2022/07/17 04:19:43;;;;;;;1.10;1.00;;;25.40;63.00;;;;;;5075549;28;20540;-93
2022/07/17 04:22:10;;;;;;;1.10;0.80;;;25.40;63.00;;;;;;5075404;28;20456;-87
2022/07/17 04:24:36;;;;;;;1.33;1.23;;;25.40;63.20;;;;;;5075345;28;20449;-93
2022/07/17 04:27:03;;;;;;;1.10;0.90;;;25.40;63.00;;;;;;5075315;28;20441;-82
2022/07/17 04:29:30;;;;;;;0.90;0.70;;;25.40;63.10;;;;;;5075039;28;20444;-83
2022/07/17 04:31:59;;;;;;;1.00;0.80;;;25.40;63.10;;;;;;5075215;28;20437;-83
2022/07/17 04:34:25;;;;;;;1.03;0.93;;;25.40;63.10;;;;;;5074979;28;20485;-91
2022/07/17 04:36:52;;;;;;;1.10;0.90;;;25.40;63.10;;;;;;5075046;28;20445;-92
2022/07/17 04:39:19;;;;;;;1.30;1.00;;;25.40;63.00;;;;;;5075314;28;20432;-88
2022/07/17 04:41:46;;;;;;;1.10;1.00;;;25.40;63.00;;;;;;5074974;28;20437;-82
2022/07/17 04:44:13;;;;;;;1.10;0.90;;;25.30;63.00;;;;;;5075034;28;20467;-82
2022/07/17 04:46:40;;;;;;;1.20;0.90;;;25.40;63.10;;;;;;5075127;28;20531;-83
2022/07/17 04:49:08;;;;;;;1.00;0.90;;;25.30;63.00;;;;;;5074903;28;20465;-82
2022/07/17 04:51:35;;;;;;;1.00;0.80;;;25.30;63.10;;;;;;5074664;28;20437;-82
2022/07/17 04:54:03;;;;;;;1.10;1.00;;;25.40;63.20;;;;;;5074517;28;20480;-82
2022/07/17 04:56:30;;;;;;;1.00;0.80;;;25.30;63.00;;;;;;5074628;28;20532;-82
2022/07/17 04:58:56;;;;;;;1.20;0.80;;;25.30;63.10;;;;;;5074627;28;20533;-84
2022/07/17 05:01:23;;;;;;;1.00;0.90;;;25.40;64.00;;;;;;5074533;28;20796;-82
2022/07/17 05:03:50;;;;;;;0.90;0.80;;;25.30;63.10;;;;;;5074875;28;20447;-82
2022/07/17 05:06:18;;;;;;;1.13;1.03;;;25.40;63.10;;;;;;5074464;28;20445;-92
2022/07/17 05:08:45;;;;;;;1.10;0.90;;;25.30;63.10;;;;;;5074384;28;20441;-93
2022/07/17 05:11:12;;;;;;;0.93;0.80;;;25.30;63.10;;;;;;5073280;28;20508;-82
2022/07/17 05:13:38;;;;;;;1.10;0.90;;;25.30;63.10;;;;;;5053648;28;20490;-85
2022/07/17 05:16:06;;;;;;;1.40;1.20;;;25.30;63.20;;;;;;5053396;28;20485;-83
2022/07/17 05:18:33;;;;;;;1.10;1.00;;;25.40;63.20;;;;;;5054371;28;20442;-82
2022/07/17 05:21:00;;;;;;;1.13;1.00;;;25.40;63.10;;;;;;5054402;28;20448;-82
2022/07/17 05:23:28;;;;;;;1.77;1.00;;;25.30;63.10;;;;;;5054323;28;20461;-82
2022/07/17 05:25:55;;;;;;;1.10;0.80;;;25.30;63.10;;;;;;5054164;28;20481;-93
2022/07/17 05:28:21;;;;;;;1.00;0.80;;;25.40;63.10;;;;;;5053868;28;20533;-91
2022/07/17 05:30:48;;;;;;;1.00;0.90;;;25.30;63.20;;;;;;5053573;28;20805;-83
2022/07/17 05:33:15;;;;;;;1.20;0.97;;;25.40;63.10;;;;;;5053749;28;20489;-83
2022/07/17 05:35:42;;;;;;;1.00;0.80;;;25.30;63.10;;;;;;5054079;28;20448;-82
2022/07/17 05:38:10;;;;;;;1.20;1.10;;;25.30;63.10;;;;;;5054126;28;20438;-83
2022/07/17 05:40:38;;;;;;;1.10;1.00;;;25.30;63.10;;;;;;5053867;28;20537;-82
2022/07/17 05:43:05;;;;;;;1.10;0.80;;;25.40;63.20;;;;;;5054223;28;20434;-82
2022/07/17 05:45:32;;;;;;;1.50;0.93;;;25.30;63.10;;;;;;5053876;28;20529;-83
2022/07/17 05:47:59;;;;;;;1.00;0.80;;;25.30;63.10;;;;;;5053603;28;20440;-83
2022/07/17 05:50:26;;;;;;;1.17;0.90;;;25.30;63.10;;;;;;5053603;28;20452;-83
2022/07/17 05:52:53;;;;;;;1.00;0.70;;;25.30;63.10;;;;;;5053696;28;20532;-83
2022/07/17 05:55:20;;;;;;;1.00;0.80;;;25.30;63.10;;;;;;5053547;28;20796;-82
2022/07/17 05:57:48;;;;;;;1.00;0.80;;;25.30;63.10;;;;;;5053494;28;20433;-82
2022/07/17 06:00:15;;;;;;;1.20;0.80;;;25.30;63.30;;;;;;5054245;28;20441;-82
2022/07/17 06:02:42;;;;;;;1.00;0.73;;;25.30;63.20;;;;;;5053609;28;20437;-82
2022/07/17 06:05:09;;;;;;;1.20;1.00;;;25.30;63.20;;;;;;5053361;28;20529;-83
2022/07/17 06:07:36;;;;;;;1.10;0.90;;;25.30;63.10;;;;;;5053445;28;20437;-93
2022/07/17 06:10:04;;;;;;;1.00;0.80;;;25.30;64.10;;;;;;5053784;28;20449;-82
2022/07/17 06:12:30;;;;;;;1.10;0.93;;;25.30;63.10;;;;;;5053640;28;20519;-82
2022/07/17 06:14:59;;;;;;;1.00;0.80;;;25.30;63.20;;;;;;5053394;28;20485;-82
2022/07/17 06:17:25;;;;;;;1.00;0.90;;;25.40;63.20;;;;;;5053360;28;20472;-84
2022/07/17 06:19:52;;;;;;;0.97;0.83;;;25.30;63.10;;;;;;5053621;28;20441;-84
2022/07/17 06:22:19;;;;;;;1.20;1.00;;;25.30;63.20;;;;;;5053490;28;20446;-85
2022/07/17 06:24:46;;;;;;;1.00;0.80;;;25.30;63.20;;;;;;5053571;28;20450;-84
2022/07/17 06:27:13;;;;;;;1.20;0.80;;;25.30;63.20;;;;;;5053308;28;20888;-86
2022/07/17 06:29:40;;;;;;;1.37;1.00;;;25.30;63.30;;;;;;5054073;28;20552;-85
2022/07/17 06:32:09;;;;;;;3.90;1.60;;;25.30;62.80;;;;;;5053858;28;20465;-86
2022/07/17 06:34:36;;;;;;;5.10;1.97;;;25.30;61.90;;;;;;5054007;28;20490;-84
2022/07/17 06:37:02;;;;;;;3.10;1.90;;;25.20;61.10;;;;;;5053667;28;20529;-85
2022/07/17 06:39:29;;;;;;;2.57;1.77;;;25.20;60.90;;;;;;5053601;28;20532;-84
2022/07/17 06:41:56;;;;;;;3.97;1.63;;;25.20;60.50;;;;;;5056997;28;20971;-85
2022/07/17 06:44:23;;;;;;;5.87;2.00;;;25.20;60.60;;;;;;5057414;28;20465;-93
2022/07/17 06:46:50;;;;;;;4.83;2.10;;;25.20;61.50;;;;;;5056684;28;20839;-85
2022/07/17 06:49:18;;;;;;;5.27;1.90;;;25.10;60.60;;;;;;5056880;28;20448;-85
2022/07/17 06:51:45;;;;;;;4.00;1.90;;;25.10;60.60;;;;;;5057492;28;20873;-85
2022/07/17 06:54:12;;;;;;;3.87;2.10;;;25.10;60.40;;;;;;5056903;28;20492;-86
2022/07/17 06:56:39;;;;;;;4.70;2.07;;;25.00;60.40;;;;;;5056845;28;21014;-85
2022/07/17 06:59:07;;;;;;;4.07;1.77;;;25.00;60.70;;;;;;5057073;28;20437;-85
2022/07/17 07:01:34;;;;;;;6.57;1.80;;;25.00;60.70;;;;;;5057036;28;20438;-93
2022/07/17 07:04:01;;;;;;;6.60;2.43;;;25.00;61.50;;;;;;5056985;28;20474;-86
2022/07/17 07:06:30;;;;;;;1.80;1.43;;;25.00;61.00;;;;;;5056866;28;20536;-86
2022/07/17 07:08:57;;;;;;;3.30;2.00;;;25.00;61.00;;;;;;5056815;28;20861;-87
2022/07/17 07:11:24;;;;;;;1.70;1.23;;;25.00;61.10;;;;;;5056806;28;20442;-86
2022/07/17 07:13:51;;;;;;;5.13;2.07;;;25.00;61.10;;;;;;5056754;28;21074;-86
2022/07/17 07:16:18;;;;;;;3.53;1.83;;;25.00;61.20;;;;;;5057019;28;20560;-89
2022/07/17 07:18:45;;;;;;;4.50;2.13;;;25.00;61.30;;;;;;5057062;28;20436;-90
2022/07/17 07:21:12;;;;;;;5.53;1.70;;;25.00;61.50;;;;;;5056729;28;20438;-86
2022/07/17 07:23:40;;;;;;;1.97;1.20;;;25.00;61.90;;;;;;5056387;28;20545;-91
2022/07/17 07:26:07;;;;;;;1.53;1.20;;;25.00;61.50;;;;;;5056033;28;20529;-86
2022/07/17 07:28:34;;;;;;;1.83;1.23;;;25.00;61.60;;;;;;5075596;28;20546;-89
2022/07/17 07:31:01;;;;;;;1.93;1.60;;;25.10;61.90;;;;;;5076287;28;20436;-89
2022/07/17 07:33:28;;;;;;;2.17;1.20;;;25.10;62.40;;;;;;5077141;28;20533;-89
2022/07/17 07:35:55;;;;;;;2.17;1.40;;;25.10;62.60;;;;;;5076019;28;20459;-88
2022/07/17 07:38:21;;;;;;;4.30;1.27;;;25.10;62.70;;;;;;5075715;28;20484;-86
2022/07/17 07:40:50;;;;;;;5.10;1.20;;;25.10;62.70;;;;;;5075938;28;20445;-84
2022/07/17 07:43:16;;;;;;;3.73;2.10;;;25.20;62.50;;;;;;5075754;28;20475;-85
2022/07/17 07:45:43;;;;;;;2.73;1.90;;;25.20;62.10;;;;;;5075433;28;20529;-90
2022/07/17 07:48:10;;;;;;;1.90;1.30;;;25.20;61.70;;;;;;5076084;28;20440;-84
2022/07/17 07:50:37;;;;;;;3.10;1.70;;;25.20;62.20;;;;;;5076009;28;20792;-84
2022/07/17 07:53:04;;;;;;;2.27;1.40;;;25.20;62.50;;;;;;5074910;28;20520;-85
2022/07/17 07:55:30;;;;;;;3.00;1.97;;;25.20;62.60;;;;;;5075644;28;20484;-84
2022/07/17 07:58:06;;;;;;;2.20;1.10;;;25.20;62.60;;;;;;5075748;28;20978;-84
2022/07/17 08:00:33;;;;;;;3.33;1.30;;;25.30;62.70;;;;;;5075038;28;20432;-84
2022/07/17 08:03:00;;;;;;;1.50;1.03;;;25.20;62.80;;;;;;5074956;28;20812;-84
2022/07/17 08:05:28;;;;;;;1.60;1.43;;;25.20;62.80;;;;;;5074744;28;20433;-84
2022/07/17 08:07:55;;;;;;;1.70;1.23;;;25.20;62.80;;;;;;5074354;28;20440;-84
2022/07/17 08:10:21;;;;;;;1.77;1.57;;;25.20;62.80;;;;;;5074275;28;20449;-85
2022/07/17 08:12:49;;;;;;;2.30;1.40;;;25.30;62.80;;;;;;5075546;28;20444;-86
2022/07/17 08:15:19;;;;;;;1.40;1.20;;;25.30;62.50;;;;;;5075141;28;21022;-86
2022/07/17 08:17:47;;;;;;;1.70;1.23;;;25.30;62.50;;;;;;5075638;28;20504;-87
2022/07/17 08:20:17;;;;;;;2.87;1.10;;;25.20;62.30;;;;;;5075508;28;20477;-86
2022/07/17 08:22:45;;;;;;;1.97;1.00;;;25.30;62.70;;;;;;5057416;28;20441;-86
2022/07/17 08:25:12;;;;;;;2.90;1.00;;;25.30;62.90;;;;;;5076931;28;20441;-91
2022/07/17 08:27:40;;;;;;;3.07;1.60;;;25.30;62.90;;;;;;5074614;28;20445;-83
2022/07/17 08:30:09;;;;;;;1.43;1.30;;;25.30;63.00;;;;;;5074858;28;20465;-84
2022/07/17 08:32:38;;;;;;;1.90;1.30;;;25.30;63.00;;;;;;5074984;28;20807;-88
2022/07/17 08:35:06;;;;;;;4.63;1.27;;;25.30;63.00;;;;;;5072369;28;20508;-88
2022/07/17 08:37:43;;;;;;;1.10;0.97;;;25.30;63.10;;;;;;5054557;28;20441;-85
2022/07/17 08:40:16;;;;;;;1.30;1.00;;;25.30;63.10;;;;;;5068677;28;20521;-85
2022/07/17 08:42:44;;;;;;;1.30;1.00;;;25.40;63.20;;;;;;5074332;28;20485;-89
2022/07/17 08:45:11;;;;;;;1.40;1.30;;;25.30;63.20;;;;;;5074160;28;20531;-85
2022/07/17 08:47:40;;;;;;;2.90;1.40;;;25.30;63.10;;;;;;5074081;28;20449;-85
2022/07/17 08:50:07;;;;;;;2.63;1.30;;;25.30;63.10;;;;;;5074099;28;20516;-88
2022/07/17 08:52:34;;;;;;;3.23;1.30;;;25.30;63.10;;;;;;5074030;28;20483;-85
2022/07/17 08:55:01;;;;;;;1.40;1.10;;;25.30;63.20;;;;;;5074064;28;20499;-86
2022/07/17 08:57:28;;;;;;;1.37;0.90;;;25.30;63.30;;;;;;5074289;28;20465;-86
2022/07/17 08:59:55;;;;;;;2.23;1.17;;;25.30;63.20;;;;;;5054619;28;20470;-85
2022/07/17 09:02:22;;;;;;;3.13;1.33;;;25.30;63.30;;;;;;5059770;28;20806;-86
2022/07/17 09:04:55;;;;;;;1.10;0.90;;;25.40;63.40;;;;;;5058735;28;20537;-89
2022/07/17 09:07:22;;;;;;;1.80;1.10;;;25.40;63.40;;;;;;5054526;28;20540;-89
2022/07/17 09:09:52;;;;;;;1.33;1.10;;;25.30;63.40;;;;;;5053599;28;20450;-84
2022/07/17 09:12:26;;;;;;;1.20;0.90;;;25.40;63.40;;;;;;5053802;28;20449;-83
2022/07/17 09:14:52;;;;;;;1.80;1.10;;;25.40;63.50;;;;;;5054046;28;20481;-84
2022/07/17 09:17:19;;;;;;;5.73;1.60;;;25.30;63.40;;;;;;5053873;28;20484;-83
2022/07/17 09:19:46;;;;;;;1.97;0.90;;;25.40;63.50;;;;;;5053521;28;20529;-84
2022/07/17 09:22:16;;;;;;;4.10;1.50;;;25.40;63.40;;;;;;5052952;28;20453;-84
2022/07/17 09:24:46;;;;;;;2.80;1.17;;;25.40;63.50;;;;;;5053219;28;20823;-84
2022/07/17 09:27:17;;;;;;;2.13;1.93;;;25.40;63.50;;;;;;5053339;28;20446;-84
2022/07/17 09:29:52;;;;;;;1.87;1.10;;;25.40;63.40;;;;;;5053268;28;20462;-91
2022/07/17 09:32:19;;;;;;;1.10;1.00;;;25.40;63.40;;;;;;5052840;28;20976;-84
2022/07/17 09:34:47;;;;;;;1.80;1.10;;;25.40;63.50;;;;;;5053534;28;20535;-83
2022/07/17 09:37:15;;;;;;;4.73;1.27;;;25.40;63.50;;;;;;5054080;28;20978;-84
2022/07/17 09:39:42;;;;;;;1.63;1.00;;;25.40;63.50;;;;;;5053905;28;20437;-84
2022/07/17 09:42:09;;;;;;;4.90;1.30;;;25.40;63.60;;;;;;5053861;28;20909;-84
2022/07/17 09:44:36;;;;;;;1.20;1.00;;;25.40;63.60;;;;;;5053676;28;20445;-84
2022/07/17 09:47:03;;;;;;;2.00;1.20;;;25.40;63.70;;;;;;5053473;28;20536;-84
2022/07/17 09:49:30;;;;;;;1.40;0.90;;;25.40;63.70;;;;;;5053766;28;20438;-83
2022/07/17 09:51:59;;;;;;;1.70;1.07;;;25.40;63.70;;;;;;5053590;28;20540;-84
2022/07/17 09:54:28;;;;;;;1.80;1.20;;;25.40;64.60;;;;;;5053641;28;20488;-84
2022/07/17 09:56:59;;;;;;;1.20;0.90;;;25.40;63.70;;;;;;5053659;28;20803;-84
2022/07/17 09:59:29;;;;;;;1.30;1.10;;;25.40;63.70;;;;;;5053509;28;20557;-84
2022/07/17 10:01:56;;;;;;;2.00;1.20;;;25.40;63.80;;;;;;5053480;28;20450;-91
2022/07/17 10:04:24;;;;;;;2.07;1.40;;;25.40;63.80;;;;;;5053518;28;20449;-84
2022/07/17 10:06:51;;;;;;;1.50;1.00;;;25.40;63.80;;;;;;5053261;28;20429;-84
2022/07/17 10:09:18;;;;;;;1.10;0.80;;;25.40;63.80;;;;;;5053551;28;20438;-84
2022/07/17 10:11:47;;;;;;;1.63;1.00;;;25.40;63.80;;;;;;5053515;28;20448;-91
2022/07/17 10:14:15;;;;;;;2.30;1.10;;;25.40;63.80;;;;;;5053390;28;20440;-84
2022/07/17 10:16:42;;;;;;;3.00;1.20;;;25.40;63.80;;;;;;5052438;28;20564;-89
2022/07/17 10:19:20;;;;;;;1.20;1.10;;;25.40;63.80;;;;;;5053460;28;20445;-84
2022/07/17 10:21:56;;;;;;;1.27;0.93;;;25.40;63.80;;;;;;5053418;28;20480;-84
2022/07/17 10:24:23;;;;;;;1.17;0.93;;;25.40;63.80;;;;;;5053375;28;20441;-83
2022/07/17 10:26:51;;;;;;;1.60;1.17;;;25.40;63.80;;;;;;5053343;28;20808;-92
2022/07/17 10:29:32;;;;;;;1.60;1.37;;;25.40;63.80;;;;;;5053438;28;20445;-83
2022/07/17 10:32:00;;;;;;;1.60;1.00;;;25.40;63.80;;;;;;5054271;28;20437;-84
2022/07/17 10:34:45;;;;;;;2.13;1.20;;;25.40;63.80;;;;;;5053385;28;20440;-84
2022/07/17 10:37:23;;;;;;;1.10;0.80;;;25.40;63.80;;;;;;5054290;28;20544;-84
2022/07/17 10:39:58;;;;;;;1.20;1.07;;;25.40;63.90;;;;;;5053422;28;20520;-84
2022/07/17 10:42:52;;;;;;;2.10;1.10;;;25.40;63.80;;;;;;5053313;28;20437;-92
2022/07/17 10:45:23;;;;;;;1.30;0.93;;;25.40;63.80;;;;;;5049034;28;20787;-84
2022/07/17 10:47:53;;;;;;;1.00;0.80;;;25.40;63.90;;;;;;5053345;28;20532;-92
2022/07/17 10:50:23;;;;;;;1.10;0.90;;;25.40;63.90;;;;;;5053155;28;20525;-85
2022/07/17 10:53:01;;;;;;;2.10;1.00;;;25.40;64.70;;;;;;5052910;28;20438;-84
2022/07/17 10:55:28;;;;;;;1.37;0.80;;;25.40;63.80;;;;;;5052745;28;20487;-84
2022/07/17 10:57:57;;;;;;;1.47;0.90;;;25.40;63.80;;;;;;5053105;28;20442;-84
2022/07/17 11:00:25;;;;;;;1.60;1.00;;;25.40;63.80;;;;;;5052817;28;21050;-91
2022/07/17 11:02:52;;;;;;;1.60;1.27;;;25.40;63.80;;;;;;5053059;28;20528;-84
2022/07/17 11:05:19;;;;;;;1.57;0.90;;;25.40;63.80;;;;;;5052884;28;20433;-84
2022/07/17 11:07:54;;;;;;;1.30;1.00;;;25.40;63.80;;;;;;5053083;28;20437;-84
2022/07/17 11:10:22;;;;;;;1.60;1.00;;;25.50;63.80;;;;;;5052965;28;20480;-84
2022/07/17 11:12:49;;;;;;;1.77;1.00;;;25.40;63.80;;;;;;5052828;28;20437;-83
2022/07/17 11:15:18;;;;;;;4.60;0.90;;;25.40;63.70;;;;;;5052492;28;20507;-84
2022/07/17 11:17:46;;;;;;;1.57;1.20;;;25.40;63.70;;;;;;5052747;28;20875;-84
2022/07/17 11:20:13;;;;;;;1.97;1.00;;;25.40;63.70;;;;;;5052833;28;20442;-84
2022/07/17 11:22:40;;;;;;;1.90;1.03;;;25.40;63.70;;;;;;5052938;28;20437;-84
2022/07/17 11:25:09;;;;;;;4.13;0.90;;;25.40;63.70;;;;;;5052650;28;20453;-91
2022/07/17 11:27:38;;;;;;;0.90;0.80;;;25.40;63.70;;;;;;5055413;28;20438;-83
2022/07/17 11:30:10;;;;;;;1.33;0.90;;;25.50;63.80;;;;;;5056288;28;20472;-91
2022/07/17 11:32:40;;;;;;;1.83;1.17;;;25.50;63.80;;;;;;5056421;28;20441;-84
2022/07/17 11:35:16;;;;;;;1.37;1.00;;;25.50;63.70;;;;;;5056006;28;20491;-84
2022/07/17 11:37:43;;;;;;;1.77;1.00;;;25.50;64.60;;;;;;5056295;28;20442;-84
2022/07/17 11:40:11;;;;;;;1.17;1.00;;;25.50;63.80;;;;;;5056174;28;20917;-83
2022/07/17 11:42:38;;;;;;;1.10;0.90;;;25.50;63.80;;;;;;5056060;28;20496;-84
2022/07/17 11:45:06;;;;;;;1.00;0.83;;;25.40;63.70;;;;;;5056178;28;20441;-83
2022/07/17 11:47:33;;;;;;;1.00;0.90;;;25.40;63.70;;;;;;5056171;28;20429;-84
2022/07/17 11:50:13;;;;;;;1.03;0.90;;;25.50;64.70;;;;;;5056039;28;20452;-84
2022/07/17 11:52:43;;;;;;;1.03;0.90;;;25.50;63.70;;;;;;5055738;28;20966;-92
2022/07/17 11:55:10;;;;;;;1.23;1.00;;;25.50;63.80;;;;;;5055721;28;20489;-84
2022/07/17 11:57:45;;;;;;;1.30;0.73;;;25.50;63.80;;;;;;5056374;28;20442;-88
2022/07/17 12:00:13;;;;;;;1.57;0.87;;;25.50;63.70;;;;;;5056008;28;20853;-84
2022/07/17 12:02:40;;;;;;;2.33;1.00;;;25.50;64.60;;;;;;5056062;28;20430;-84
2022/07/17 12:05:09;;;;;;;4.60;1.00;;;25.50;63.70;;;;;;5055847;28;20433;-84
2022/07/17 12:07:45;;;;;;;1.13;0.97;;;25.50;63.70;;;;;;5055613;28;20495;-91
2022/07/17 12:10:16;;;;;;;1.20;0.93;;;25.50;63.60;;;;;;5055853;28;20443;-84
2022/07/17 12:12:57;;;;;;;1.13;0.90;;;25.50;64.50;;;;;;5055711;28;20438;-84
2022/07/17 12:15:36;;;;;;;1.10;0.97;;;25.50;63.60;;;;;;5055354;28;20486;-92
2022/07/17 12:18:04;;;;;;;1.10;0.80;;;25.50;63.60;;;;;;5055527;28;20473;-84
2022/07/17 12:20:48;;;;;;;1.10;0.83;;;25.50;64.50;;;;;;5055585;28;20446;-84
2022/07/17 12:23:28;;;;;;;1.43;0.83;;;25.50;64.40;;;;;;5053586;28;20531;-83
2022/07/17 12:26:05;;;;;;;1.20;0.90;;;25.50;63.60;;;;;;5055125;28;20441;-84
2022/07/17 12:28:32;;;;;;;1.03;0.93;;;25.50;63.70;;;;;;5055436;28;20434;-84
2022/07/17 12:30:59;;;;;;;0.90;0.70;;;25.50;63.60;;;;;;5055127;28;20461;-84
2022/07/17 12:33:26;;;;;;;1.17;0.80;;;25.50;63.50;;;;;;5055193;28;20449;-85
2022/07/17 12:35:54;;;;;;;1.10;0.90;;;25.50;63.60;;;;;;5054946;28;20489;-88
2022/07/17 12:38:21;;;;;;;1.10;0.90;;;25.50;63.60;;;;;;5054654;28;20797;-84
2022/07/17 12:40:48;;;;;;;1.07;0.93;;;25.50;63.60;;;;;;5055371;28;20800;-84
2022/07/17 12:43:15;;;;;;;1.07;0.87;;;25.50;63.60;;;;;;5055140;28;20442;-84
2022/07/17 12:45:42;;;;;;;1.10;1.00;;;25.50;63.60;;;;;;5054706;28;20507;-83
2022/07/17 12:48:08;;;;;;;1.10;0.87;;;25.50;63.60;;;;;;5054749;28;20445;-83
2022/07/17 12:50:35;;;;;;;1.20;1.00;;;25.50;64.50;;;;;;5055000;28;20629;-84
2022/07/17 12:53:04;;;;;;;1.17;0.90;;;25.50;63.70;;;;;;5054680;28;20536;-84